Time;durP1;ratioP1;P1;durP2;ratioP2;P2;SDS_P1;SDS_P2;PMS_P1;PMS_P2;Temp;Humidity;BMP_temperature;BMP_pressure;BME280_temperature;BME280_humidity;BME280_pressure;Samples;Min_cycle;Max_cycle;Signal;HPM_P1;HPM_P2
2023/01/01 00:02:23;;;;;;;;;2.33;2.33;;;;;-146.50;100.00;59256.41;5085880;27;45357;-76
2023/01/01 00:04:49;;;;;;;;;6.67;3.00;;;;;-146.50;100.00;59256.41;5093207;27;45464;-79
2023/01/01 00:07:14;;;;;;;;;2.33;2.00;;;;;-146.50;100.00;59256.41;5094574;27;45382;-77
2023/01/01 00:12:23;;;;;;;;;4.00;3.67;;;;;-146.50;100.00;59256.41;5093410;27;45532;-84
2023/01/01 00:14:49;;;;;;;;;5.00;3.33;;;;;-146.50;100.00;59256.41;5087627;27;45566;-80
2023/01/01 00:17:14;;;;;;;;;1.00;1.00;;;;;-146.50;100.00;59256.41;5092441;27;45381;-83
2023/01/01 00:19:39;;;;;;;;;3.00;3.00;;;;;-146.50;100.00;59256.41;5094970;27;45502;-86
2023/01/01 00:22:05;;;;;;;;;4.67;4.67;;;;;-146.50;100.00;59256.41;5088800;27;45522;-84
2023/01/01 00:24:30;;;;;;;;;2.67;2.67;;;;;-146.50;100.00;59256.41;5077304;27;45362;-83
2023/01/01 00:26:56;;;;;;;;;3.67;3.00;;;;;-146.50;100.00;59256.41;5060976;27;45631;-84
2023/01/01 00:29:21;;;;;;;;;1.00;1.00;;;;;-146.50;100.00;59256.41;5071681;27;45536;-83
2023/01/01 00:31:46;;;;;;;;;3.00;3.00;;;;;-146.50;100.00;59256.41;5088084;27;45694;-79
2023/01/01 00:34:12;;;;;;;;;3.33;3.33;;;;;-146.50;100.00;59256.41;5077993;27;46088;-81
2023/01/01 00:36:37;;;;;;;;;6.50;5.00;;;;;-146.50;100.00;59256.41;5075620;27;45432;-82
2023/01/01 00:39:02;;;;;;;;;18.25;15.25;;;;;-146.50;100.00;59256.41;5084710;27;45499;-84
2023/01/01 00:41:28;;;;;;;;;6.00;5.00;;;;;-146.50;100.00;59256.41;5083745;27;45506;-85
2023/01/01 00:43:53;;;;;;;;;5.50;5.50;;;;;-146.50;100.00;59256.41;5094221;27;46998;-80
2023/01/01 00:46:18;;;;;;;;;4.75;4.75;;;;;-146.50;100.00;59256.41;5076474;27;45596;-83
2023/01/01 00:48:44;;;;;;;;;4.50;4.00;;;;;-146.50;100.00;59256.41;5078661;27;45492;-80
2023/01/01 00:51:10;;;;;;;;;4.00;2.67;;;;;-146.50;100.00;59256.41;5082613;27;45718;-85
2023/01/01 00:53:36;;;;;;;;;3.67;3.67;;;;;-146.50;100.00;59256.41;5073870;28;46342;-82
2023/01/01 00:56:02;;;;;;;;;3.00;3.00;;;;;-146.50;100.00;59256.41;5087530;27;46464;-78
2023/01/01 00:58:28;;;;;;;;;2.67;2.67;;;;;-146.50;100.00;59256.41;5076169;27;45620;-80
2023/01/01 01:00:54;;;;;;;;;4.25;4.25;;;;;-146.50;100.00;59256.41;5078053;27;45538;-82
2023/01/01 01:03:29;;;;;;;;;4.33;4.00;;;;;-146.50;100.00;59256.41;5085107;27;45391;-81
2023/01/01 01:06:15;;;;;;;;;7.00;4.00;;;;;-146.50;100.00;59256.41;5088179;27;45541;-80
2023/01/01 01:08:44;;;;;;;;;4.00;2.25;;;;;-146.50;100.00;59256.41;5077046;27;45457;-83
2023/01/01 01:11:15;;;;;;;;;5.00;3.00;;;;;-146.50;100.00;59256.41;5086109;27;45481;-84
2023/01/01 01:13:42;;;;;;;;;3.33;3.33;;;;;-146.50;100.00;59256.41;5073640;28;45626;-83
2023/01/01 01:16:26;;;;;;;;;2.00;2.00;;;;;-146.50;100.00;59256.41;5089928;27;45527;-82
2023/01/01 01:18:53;;;;;;;;;3.00;3.00;;;;;-146.50;100.00;59256.41;5064382;27;45426;-79
2023/01/01 01:21:20;;;;;;;;;3.25;3.25;;;;;-146.50;100.00;59256.41;5084611;27;46016;-80
2023/01/01 01:23:47;;;;;;;;;3.00;1.67;;;;;-146.50;100.00;59256.41;5086915;27;45470;-81
2023/01/01 01:26:16;;;;;;;;;3.00;3.00;;;;;-146.50;100.00;59256.41;5076336;27;45390;-79
2023/01/01 01:28:42;;;;;;;;;4.00;4.00;;;;;-146.50;100.00;59256.41;5088420;27;45382;-85
2023/01/01 01:31:08;;;;;;;;;4.00;4.00;;;;;-146.50;100.00;59256.41;5072275;27;45434;-82
2023/01/01 01:33:35;;;;;;;;;4.00;3.00;;;;;-146.50;100.00;59256.41;5084654;27;45434;-80
2023/01/01 01:36:01;;;;;;;;;3.33;2.33;;;;;-146.50;100.00;59256.41;5082738;27;45370;-78
2023/01/01 01:38:26;;;;;;;;;7.00;4.00;;;;;-146.50;100.00;59256.41;5080064;27;45796;-81
2023/01/01 01:40:52;;;;;;;;;3.67;3.67;;;;;-146.50;100.00;59256.41;5087113;27;45488;-80
2023/01/01 01:43:42;;;;;;;;;3.33;3.33;;;;;-146.50;100.00;59256.41;5088269;27;46944;-81
2023/01/01 01:46:39;;;;;;;;;4.75;4.00;;;;;-146.50;100.00;59256.41;5087074;27;45414;-83
2023/01/01 01:49:14;;;;;;;;;4.00;2.75;;;;;-146.50;100.00;59256.41;5083882;27;45492;-75
2023/01/01 01:51:39;;;;;;;;;9.00;3.75;;;;;-146.50;100.00;59256.41;5080571;27;45504;-75
2023/01/01 01:54:13;;;;;;;;;3.50;3.50;;;;;-146.50;100.00;59256.41;5085885;27;45893;-76
2023/01/01 01:56:54;;;;;;;;;6.67;4.67;;;;;-146.50;100.00;59256.41;5077622;27;45715;-75
2023/01/01 01:59:21;;;;;;;;;3.67;2.67;;;;;-146.50;100.00;59256.41;5070587;27;45619;-76
2023/01/01 02:01:47;;;;;;;;;4.50;4.50;;;;;-146.50;100.00;59256.41;5083375;27;45476;-76
2023/01/01 02:04:12;;;;;;;;;5.25;4.00;;;;;-146.50;100.00;59256.41;5081552;27;46153;-76
2023/01/01 02:06:38;;;;;;;;;5.00;3.50;;;;;-146.50;100.00;59256.41;5078363;27;45481;-78
2023/01/01 02:09:06;;;;;;;;;5.00;3.25;;;;;-146.50;100.00;59256.41;5078856;27;45560;-81
2023/01/01 02:11:32;;;;;;;;;5.00;3.75;;;;;-146.50;100.00;59256.41;5073500;27;45428;-79
2023/01/01 02:13:59;;;;;;;;;5.00;3.50;;;;;-146.50;100.00;59256.41;5079684;27;46233;-79
2023/01/01 02:16:55;;;;;;;;;2.25;2.25;;;;;-146.50;100.00;59256.41;5093250;27;45999;-81
2023/01/01 02:19:48;;;;;;;;;3.67;3.67;;;;;-146.50;100.00;59256.41;5082257;27;45716;-78
2023/01/01 02:22:35;;;;;;;;;7.75;5.00;;;;;-146.50;100.00;59256.41;5086919;27;45523;-78
2023/01/01 02:25:38;;;;;;;;;3.00;3.00;;;;;-146.50;100.00;59256.41;5082770;27;46608;-80
2023/01/01 02:28:14;;;;;;;;;3.67;2.67;;;;;-146.50;100.00;59256.41;5082518;27;45946;-78
2023/01/01 02:30:44;;;;;;;;;6.75;5.50;;;;;-146.50;100.00;59256.41;5077244;27;45469;-79
2023/01/01 02:33:18;;;;;;;;;3.25;2.00;;;;;-146.50;100.00;59256.41;5091955;27;45406;-79
2023/01/01 02:35:56;;;;;;;;;6.25;4.00;;;;;-146.50;100.00;59256.41;5078267;27;45683;-79
2023/01/01 02:38:28;;;;;;;;;6.00;4.00;;;;;-146.50;100.00;59256.41;5087855;27;45416;-74
2023/01/01 02:41:09;;;;;;;;;4.00;4.00;;;;;-146.50;100.00;59256.41;5088811;27;45724;-75
2023/01/01 02:43:34;;;;;;;;;4.75;4.50;;;;;-146.50;100.00;59256.41;5071547;27;45538;-76
2023/01/01 02:46:05;;;;;;;;;7.00;5.75;;;;;-146.50;100.00;59256.41;5074058;27;45585;-75
2023/01/01 02:48:42;;;;;;;;;2.00;2.00;;;;;-146.50;100.00;59256.41;5071968;27;45663;-75
2023/01/01 02:51:12;;;;;;;;;5.25;4.00;;;;;-146.50;100.00;59256.41;5071643;27;45651;-76
2023/01/01 02:53:46;;;;;;;;;4.75;3.75;;;;;-146.50;100.00;59256.41;5072512;27;45472;-75
2023/01/01 02:56:37;;;;;;;;;4.00;4.00;;;;;-146.50;100.00;59256.41;5071822;28;45541;-75
2023/01/01 03:02:09;;;;;;;;;6.00;4.50;;;;;-146.50;100.00;59256.41;5028612;28;45529;-76
2023/01/01 03:04:37;;;;;;;;;5.67;4.00;;;;;-146.50;100.00;59256.41;5027320;28;45566;-77
2023/01/01 03:07:23;;;;;;;;;6.00;5.00;;;;;-146.50;100.00;59256.41;5026871;28;47601;-77
2023/01/01 03:10:08;;;;;;;;;4.25;4.25;;;;;-146.50;100.00;59256.41;5028806;28;45720;-78
2023/01/01 03:12:42;;;;;;;;;3.00;3.00;;;;;-146.50;100.00;59256.41;5027566;28;45423;-77
2023/01/01 03:15:26;;;;;;;;;3.00;3.00;;;;;-146.50;100.00;59256.41;5027913;28;45471;-78
2023/01/01 03:18:10;;;;;;;;;5.67;5.67;;;;;-146.50;100.00;59256.41;5028293;28;45436;-77
2023/01/01 03:20:41;;;;;;;;;4.00;4.00;;;;;-146.50;100.00;59256.41;5028368;28;45973;-78
2023/01/01 03:23:12;;;;;;;;;3.67;3.67;;;;;-146.50;100.00;59256.41;5029806;28;45442;-78
2023/01/01 03:25:47;;;;;;;;;4.25;4.00;;;;;-146.50;100.00;59256.41;5029160;28;46713;-77
2023/01/01 03:28:18;;;;;;;;;4.75;4.25;;;;;-146.50;100.00;59256.41;5030396;28;45760;-78
2023/01/01 03:30:47;;;;;;;;;5.00;3.00;;;;;-146.50;100.00;59256.41;5035679;28;45427;-79
2023/01/01 03:33:21;;;;;;;;;4.50;3.75;;;;;-146.50;100.00;59256.41;5030805;28;45545;-78
2023/01/01 03:36:05;;;;;;;;;4.00;4.00;;;;;-146.50;100.00;59256.41;5024152;28;45996;-77
2023/01/01 03:38:48;;;;;;;;;4.50;4.50;;;;;-146.50;100.00;59256.41;5039123;28;46325;-77
2023/01/01 03:41:36;;;;;;;;;5.00;4.50;;;;;-146.50;100.00;59256.41;5055214;28;45568;-77
2023/01/01 03:44:17;;;;;;;;;4.00;4.00;;;;;-146.50;100.00;59256.41;5077109;27;45438;-76
2023/01/01 03:46:43;;;;;;;;;6.25;4.50;;;;;-146.50;100.00;59256.41;5075059;27;45436;-76
2023/01/01 03:49:11;;;;;;;;;6.25;5.00;;;;;-146.50;100.00;59256.41;5075590;27;45473;-75
2023/01/01 03:52:07;;;;;;;;;4.00;4.00;;;;;-146.50;100.00;59256.41;5075638;28;45457;-77
2023/01/01 03:55:07;;;;;;;;;3.50;3.50;;;;;-146.50;100.00;59256.41;5073737;28;45583;-76
2023/01/01 03:58:10;;;;;;;;;5.50;3.50;;;;;-146.50;100.00;59256.41;5074295;28;45367;-74
2023/01/01 04:00:54;;;;;;;;;2.00;2.00;;;;;-146.50;100.00;59256.41;5075730;28;45506;-74
2023/01/01 04:03:23;;;;;;;;;3.00;3.00;;;;;-146.50;100.00;59256.41;5075173;27;45427;-75
2023/01/01 04:05:48;;;;;;;;;4.25;4.00;;;;;-146.50;100.00;59256.41;5075062;28;45731;-74
2023/01/01 04:08:14;;;;;;;;;3.75;3.75;;;;;-146.50;100.00;59256.41;5066193;27;45607;-74
2023/01/01 04:10:52;;;;;;;;;4.00;4.00;;;;;-146.50;100.00;59256.41;5058844;28;45637;-76
2023/01/01 04:13:17;;;;;;;;;3.00;3.00;;;;;-146.50;100.00;59256.41;5072910;28;46624;-77
2023/01/01 04:15:42;;;;;;;;;2.50;2.50;;;;;-146.50;100.00;59256.41;5074637;27;45659;-79
2023/01/01 04:18:08;;;;;;;;;4.25;4.00;;;;;-146.50;100.00;59256.41;5074271;28;45342;-80
2023/01/01 04:20:33;;;;;;;;;8.25;6.75;;;;;-146.50;100.00;59256.41;5075021;28;45642;-80
2023/01/01 04:23:00;;;;;;;;;4.50;4.50;;;;;-146.50;100.00;59256.41;5074604;27;45464;-80
2023/01/01 04:25:26;;;;;;;;;3.00;2.00;;;;;-146.50;100.00;59256.41;5090184;27;45697;-78
2023/01/01 04:27:52;;;;;;;;;5.50;5.00;;;;;-146.50;100.00;59256.41;5075042;28;45649;-79
2023/01/01 04:30:18;;;;;;;;;5.25;5.25;;;;;-146.50;100.00;59256.41;5074936;27;46166;-79
2023/01/01 04:32:44;;;;;;;;;6.75;4.25;;;;;-146.50;100.00;59256.41;5075303;27;45366;-79
2023/01/01 04:35:11;;;;;;;;;3.67;3.00;;;;;-146.50;100.00;59256.41;5075289;27;45369;-78
2023/01/01 04:37:38;;;;;;;;;2.00;1.50;;;;;-146.50;100.00;59256.41;5075504;27;45715;-78
2023/01/01 04:40:04;;;;;;;;;3.75;3.50;;;;;-146.50;100.00;59256.41;5074141;28;45476;-77
2023/01/01 04:42:30;;;;;;;;;5.00;4.00;;;;;-146.50;100.00;59256.41;5074899;27;45584;-79
2023/01/01 04:44:55;;;;;;;;;6.00;6.00;;;;;-146.50;100.00;59256.41;5070466;28;45726;-77
2023/01/01 04:47:21;;;;;;;;;4.25;4.25;;;;;-146.50;100.00;59256.41;5053731;28;45493;-79
2023/01/01 04:49:46;;;;;;;;;3.00;3.00;;;;;-146.50;100.00;59256.41;5054215;28;46060;-79
2023/01/01 04:52:11;;;;;;;;;4.00;4.00;;;;;-146.50;100.00;59256.41;5054743;28;45438;-78
2023/01/01 04:54:37;;;;;;;;;2.33;2.00;;;;;-146.50;100.00;59256.41;5054434;28;45414;-78
2023/01/01 04:57:02;;;;;;;;;4.00;4.00;;;;;-146.50;100.00;59256.41;5054509;28;45537;-78
2023/01/01 04:59:29;;;;;;;;;5.67;4.67;;;;;-146.50;100.00;59256.41;5087374;27;46026;-78
2023/01/01 05:01:55;;;;;;;;;4.00;4.00;;;;;-146.50;100.00;59256.41;5054719;28;45718;-79
2023/01/01 05:04:20;;;;;;;;;6.00;6.00;;;;;-146.50;100.00;59256.41;5070480;28;45705;-78
2023/01/01 05:06:45;;;;;;;;;2.00;2.00;;;;;-146.50;100.00;59256.41;5074632;27;45519;-79
2023/01/01 05:09:11;;;;;;;;;3.75;3.75;;;;;-146.50;100.00;59256.41;5074524;27;45698;-78
2023/01/01 05:11:37;;;;;;;;;3.75;3.75;;;;;-146.50;100.00;59256.41;5074166;27;45950;-79
2023/01/01 05:14:03;;;;;;;;;4.00;3.00;;;;;-146.50;100.00;59256.41;5074267;28;45812;-79
2023/01/01 05:16:36;;;;;;;;;4.00;4.00;;;;;-146.50;100.00;59256.41;5074386;28;45492;-79
2023/01/01 05:19:02;;;;;;;;;5.75;4.00;;;;;-146.50;100.00;59256.41;5074000;27;47454;-79
2023/01/01 05:21:33;;;;;;;;;6.00;5.00;;;;;-146.50;100.00;59256.41;5072621;27;45412;-80
2023/01/01 05:24:01;;;;;;;;;6.25;6.25;;;;;-146.50;100.00;59256.41;5073613;27;45415;-81
2023/01/01 05:26:30;;;;;;;;;3.00;3.00;;;;;-146.50;100.00;59256.41;5072303;28;45785;-79
2023/01/01 05:28:57;;;;;;;;;4.50;4.25;;;;;-146.50;100.00;59256.41;5074227;27;47301;-79
2023/01/01 05:31:24;;;;;;;;;3.50;3.50;;;;;-146.50;100.00;59256.41;5074172;27;45327;-78
2023/01/01 05:33:51;;;;;;;;;4.00;4.00;;;;;-146.50;100.00;59256.41;5073506;27;45433;-79
2023/01/01 05:36:20;;;;;;;;;4.25;4.25;;;;;-146.50;100.00;59256.41;5072697;28;45505;-79
2023/01/01 05:38:45;;;;;;;;;3.50;3.50;;;;;-146.50;100.00;59256.41;5073961;28;45412;-80
2023/01/01 05:41:13;;;;;;;;;2.33;2.00;;;;;-146.50;100.00;59256.41;5073961;27;45465;-79
2023/01/01 05:43:39;;;;;;;;;5.25;3.00;;;;;-146.50;100.00;59256.41;5073721;27;45439;-80
2023/01/01 05:46:07;;;;;;;;;8.00;3.50;;;;;-146.50;100.00;59256.41;5073894;28;45537;-79
2023/01/01 05:48:35;;;;;;;;;4.75;4.75;;;;;-146.50;100.00;59256.41;5073854;28;45488;-79
2023/01/01 05:51:05;;;;;;;;;2.00;2.00;;;;;-146.50;100.00;59256.41;5072907;27;45552;-75
2023/01/01 05:53:31;;;;;;;;;5.75;3.00;;;;;-146.50;100.00;59256.41;5073766;27;45570;-77
2023/01/01 05:55:58;;;;;;;;;5.00;3.25;;;;;-146.50;100.00;59256.41;5074250;28;45439;-77
2023/01/01 05:58:24;;;;;;;;;5.25;4.25;;;;;-146.50;100.00;59256.41;5073028;27;46168;-77
2023/01/01 06:00:49;;;;;;;;;4.25;2.75;;;;;-146.50;100.00;59256.41;5073323;27;45679;-77
2023/01/01 06:03:15;;;;;;;;;3.75;3.00;;;;;-146.50;100.00;59256.41;5073487;27;45440;-77
2023/01/01 06:05:40;;;;;;;;;1.00;1.00;;;;;-146.50;100.00;59256.41;5073800;27;45519;-78
2023/01/01 06:08:05;;;;;;;;;3.00;3.00;;;;;-146.50;100.00;59256.41;5073662;27;47331;-77
2023/01/01 06:10:31;;;;;;;;;3.00;3.00;;;;;-146.50;100.00;59256.41;5073577;27;45434;-77
2023/01/01 06:12:57;;;;;;;;;3.25;2.25;;;;;-146.50;100.00;59256.41;5073764;27;45441;-77
2023/01/01 06:15:23;;;;;;;;;2.50;2.50;;;;;-146.50;100.00;59256.41;5073501;27;45532;-78
2023/01/01 06:17:49;;;;;;;;;4.00;4.00;;;;;-146.50;100.00;59256.41;5073112;28;46950;-78
2023/01/01 06:20:14;;;;;;;;;5.00;5.00;;;;;-146.50;100.00;59256.41;5073317;27;45689;-79
2023/01/01 06:22:40;;;;;;;;;3.00;3.00;;;;;-146.50;100.00;59256.41;5073614;27;45473;-76
2023/01/01 06:25:06;;;;;;;;;3.00;2.75;;;;;-146.50;100.00;59256.41;5073428;27;45603;-76
2023/01/01 06:27:31;;;;;;;;;6.00;3.00;;;;;-146.50;100.00;59256.41;5072929;27;45332;-76
2023/01/01 06:29:56;;;;;;;;;6.00;3.50;;;;;-146.50;100.00;59256.41;5072024;28;45465;-77
2023/01/01 06:32:22;;;;;;;;;3.00;3.00;;;;;-146.50;100.00;59256.41;5073743;28;45442;-78
2023/01/01 06:34:47;;;;;;;;;5.50;4.25;;;;;-146.50;100.00;59256.41;5073266;27;45405;-79
2023/01/01 06:37:12;;;;;;;;;2.50;2.25;;;;;-146.50;100.00;59256.41;5073139;27;45432;-80
2023/01/01 06:39:38;;;;;;;;;4.00;3.00;;;;;-146.50;100.00;59256.41;5072287;27;45411;-79
2023/01/01 06:42:04;;;;;;;;;3.00;3.00;;;;;-146.50;100.00;59256.41;5073224;27;45460;-79
2023/01/01 06:44:29;;;;;;;;;3.75;3.75;;;;;-146.50;100.00;59256.41;5073387;27;45405;-78
2023/01/01 06:46:54;;;;;;;;;4.50;3.25;;;;;-146.50;100.00;59256.41;5071577;28;48263;-79
2023/01/01 06:49:20;;;;;;;;;6.25;3.75;;;;;-146.50;100.00;59256.41;5072923;27;45393;-79
2023/01/01 06:51:45;;;;;;;;;2.50;2.50;;;;;-146.50;100.00;59256.41;5073256;27;45436;-78
2023/01/01 06:54:10;;;;;;;;;3.00;3.00;;;;;-146.50;100.00;59256.41;5073389;27;45396;-78
2023/01/01 06:56:36;;;;;;;;;5.50;3.50;;;;;-146.50;100.00;59256.41;5072832;27;45428;-79
2023/01/01 06:59:03;;;;;;;;;3.00;3.00;;;;;-146.50;100.00;59256.41;5085540;27;45468;-79
2023/01/01 07:01:31;;;;;;;;;4.00;4.00;;;;;-146.50;100.00;59256.41;5084462;27;45425;-80
2023/01/01 07:04:02;;;;;;;;;3.25;3.00;;;;;-146.50;100.00;59256.41;5078961;27;45445;-81
2023/01/01 07:06:30;;;;;;;;;4.75;3.75;;;;;-146.50;100.00;59256.41;5072555;27;46566;-79
2023/01/01 07:08:55;;;;;;;;;4.00;2.67;;;;;-146.50;100.00;59256.41;5073174;27;45373;-80
2023/01/01 07:11:22;;;;;;;;;4.50;2.50;;;;;-146.50;100.00;59256.41;5072556;27;45458;-79
2023/01/01 07:13:47;;;;;;;;;4.25;2.50;;;;;-146.50;100.00;59256.41;5073083;27;45416;-80
2023/01/01 07:16:13;;;;;;;;;3.25;2.00;;;;;-146.50;100.00;59256.41;5072909;27;45408;-81
2023/01/01 07:18:40;;;;;;;;;5.00;4.00;;;;;-146.50;100.00;59256.41;5073528;27;45465;-80
2023/01/01 07:21:20;;;;;;;;;3.50;3.25;;;;;-146.50;100.00;59256.41;5073767;27;45463;-81
2023/01/01 07:23:45;;;;;;;;;2.67;2.00;;;;;-146.50;100.00;59256.41;5072015;27;45374;-80
2023/01/01 07:26:11;;;;;;;;;2.50;1.00;;;;;-146.50;100.00;59256.41;5074797;27;46131;-81
2023/01/01 07:28:36;;;;;;;;;4.00;4.00;;;;;-146.50;100.00;59256.41;5074241;28;45373;-80
2023/01/01 07:31:01;;;;;;;;;4.50;2.50;;;;;-146.50;100.00;59256.41;5072744;28;45474;-81
2023/01/01 07:33:26;;;;;;;;;4.75;4.00;;;;;-146.50;100.00;59256.41;5072300;27;45421;-78
2023/01/01 07:35:52;;;;;;;;;3.00;3.00;;;;;-146.50;100.00;59256.41;5071931;27;45463;-79
2023/01/01 07:38:17;;;;;;;;;4.00;3.75;;;;;-146.50;100.00;59256.41;5072424;27;45430;-80
2023/01/01 07:40:43;;;;;;;;;5.00;4.00;;;;;-146.50;100.00;59256.41;5072415;27;45875;-80
2023/01/01 07:43:08;;;;;;;;;3.00;3.00;;;;;-146.50;100.00;59256.41;5071162;28;45519;-82
2023/01/01 07:45:34;;;;;;;;;3.00;2.00;;;;;-146.50;100.00;59256.41;5072142;27;46243;-81
2023/01/01 07:48:01;;;;;;;;;2.00;2.00;;;;;-146.50;100.00;59256.41;5071732;28;45485;-81
2023/01/01 07:50:29;;;;;;;;;3.67;2.67;;;;;-146.50;100.00;59256.41;5070700;28;45402;-80
2023/01/01 07:52:54;;;;;;;;;3.67;2.00;;;;;-146.50;100.00;59256.41;5072666;27;45393;-81
2023/01/01 07:55:20;;;;;;;;;3.00;3.00;;;;;-146.50;100.00;59256.41;5072810;27;45468;-80
2023/01/01 07:57:46;;;;;;;;;4.75;3.25;;;;;-146.50;100.00;59256.41;5071912;27;45897;-81
2023/01/01 08:00:14;;;;;;;;;2.00;2.00;;;;;-146.50;100.00;59256.41;5072523;27;45806;-80
2023/01/01 08:02:40;;;;;;;;;4.50;4.50;;;;;-146.50;100.00;59256.41;5071758;27;45519;-80
2023/01/01 08:05:06;;;;;;;;;5.33;4.33;;;;;-146.50;100.00;59256.41;5071852;27;45510;-80
2023/01/01 08:07:32;;;;;;;;;4.00;3.00;;;;;-146.50;100.00;59256.41;5071800;27;45351;-80
2023/01/01 08:09:57;;;;;;;;;3.67;3.67;;;;;-146.50;100.00;59256.41;5081259;27;45535;-80
2023/01/01 08:12:23;;;;;;;;;2.67;2.67;;;;;-146.50;100.00;59256.41;5091218;27;45492;-81
2023/01/01 08:14:48;;;;;;;;;3.67;3.00;;;;;-146.50;100.00;59256.41;5091032;27;45540;-79
2023/01/01 08:17:14;;;;;;;;;0.00;0.00;;;;;-146.50;100.00;59256.41;5092088;27;45409;-80
2023/01/01 08:19:39;;;;;;;;;5.75;4.75;;;;;-146.50;100.00;59256.41;5078664;27;45444;-80
2023/01/01 08:22:04;;;;;;;;;5.33;3.00;;;;;-146.50;100.00;59256.41;5071995;27;45418;-81
2023/01/01 08:24:30;;;;;;;;;3.67;3.67;;;;;-146.50;100.00;59256.41;5074164;27;45295;-80
2023/01/01 08:26:55;;;;;;;;;5.67;3.00;;;;;-146.50;100.00;59256.41;5075044;27;45401;-81
2023/01/01 08:29:20;;;;;;;;;4.00;4.00;;;;;-146.50;100.00;59256.41;5075276;28;45622;-79
2023/01/01 08:31:46;;;;;;;;;2.75;2.75;;;;;-146.50;100.00;59256.41;5069508;28;45443;-80
2023/01/01 08:34:11;;;;;;;;;5.33;4.33;;;;;-146.50;100.00;59256.41;5078092;27;46309;-80
2023/01/01 08:36:39;;;;;;;;;2.33;2.33;;;;;-146.50;100.00;59256.41;5085709;27;45470;-81
2023/01/01 08:39:05;;;;;;;;;4.00;4.00;;;;;-146.50;100.00;59256.41;5075244;27;45375;-80
2023/01/01 08:41:31;;;;;;;;;4.00;3.00;;;;;-146.50;100.00;59256.41;5073922;28;45604;-80
2023/01/01 08:43:56;;;;;;;;;2.67;2.33;;;;;-146.50;100.00;59256.41;5074812;28;47056;-80
2023/01/01 08:46:22;;;;;;;;;2.50;2.50;;;;;-146.50;100.00;59256.41;5074691;27;45356;-78
2023/01/01 08:48:47;;;;;;;;;3.00;3.00;;;;;-146.50;100.00;59256.41;5075464;27;45601;-78
2023/01/01 08:51:12;;;;;;;;;5.00;4.00;;;;;-146.50;100.00;59256.41;5074915;27;45432;-79
2023/01/01 08:53:37;;;;;;;;;6.75;6.00;;;;;-146.50;100.00;59256.41;5075594;27;46108;-78
2023/01/01 08:56:07;;;;;;;;;4.00;4.00;;;;;-146.50;100.00;59256.41;5075342;27;45525;-78
2023/01/01 08:58:34;;;;;;;;;6.50;3.50;;;;;-146.50;100.00;59256.41;5075813;27;45658;-78
2023/01/01 09:01:00;;;;;;;;;2.00;2.00;;;;;-146.50;100.00;59256.41;5074435;27;45433;-78
2023/01/01 09:03:26;;;;;;;;;5.50;4.00;;;;;-146.50;100.00;59256.41;5075219;27;47130;-79
2023/01/01 09:05:52;;;;;;;;;2.33;2.33;;;;;-146.50;100.00;59256.41;5074884;27;45402;-79
2023/01/01 09:08:18;;;;;;;;;2.33;2.33;;;;;-146.50;100.00;59256.41;5074894;27;45482;-78
2023/01/01 09:10:43;;;;;;;;;4.00;3.00;;;;;-146.50;100.00;59256.41;5074840;27;45439;-78
2023/01/01 09:13:14;;;;;;;;;6.00;4.00;;;;;-146.50;100.00;59256.41;5072843;28;46276;-78
2023/01/01 09:15:41;;;;;;;;;3.67;3.67;;;;;-146.50;100.00;59256.41;5074404;27;45393;-80
2023/01/01 09:18:08;;;;;;;;;2.67;2.00;;;;;-146.50;100.00;59256.41;5076391;27;45603;-78
2023/01/01 09:20:33;;;;;;;;;4.00;3.00;;;;;-146.50;100.00;59256.41;5073958;27;45532;-80
2023/01/01 09:22:59;;;;;;;;;3.33;3.33;;;;;-146.50;100.00;59256.41;5074198;27;45429;-81
2023/01/01 09:25:24;;;;;;;;;4.00;3.00;;;;;-146.50;100.00;59256.41;5075860;27;45453;-81
2023/01/01 09:27:56;;;;;;;;;5.25;3.00;;;;;-146.50;100.00;59256.41;5074666;27;45342;-80
2023/01/01 09:30:22;;;;;;;;;4.00;3.75;;;;;-146.50;100.00;59256.41;5074097;28;45361;-81
2023/01/01 09:32:47;;;;;;;;;2.75;2.75;;;;;-146.50;100.00;59256.41;5073543;27;45871;-80
2023/01/01 09:35:13;;;;;;;;;5.25;3.00;;;;;-146.50;100.00;59256.41;5094928;27;45462;-80
2023/01/01 09:37:38;;;;;;;;;6.00;3.00;;;;;-146.50;100.00;59256.41;5095339;27;45487;-82
2023/01/01 09:40:04;;;;;;;;;3.25;3.25;;;;;-146.50;100.00;59256.41;5094760;27;45464;-80
2023/01/01 09:42:47;;;;;;;;;3.00;3.00;;;;;-146.50;100.00;59256.41;5092442;27;45411;-80
2023/01/01 09:45:21;;;;;;;;;5.00;4.00;;;;;-146.50;100.00;59256.41;5074172;27;45468;-80
2023/01/01 09:47:53;;;;;;;;;2.50;2.50;;;;;-146.50;100.00;59256.41;5092246;27;45600;-80
2023/01/01 09:50:23;;;;;;;;;3.00;3.00;;;;;-146.50;100.00;59256.41;5094263;27;45610;-80
2023/01/01 09:52:54;;;;;;;;;3.75;3.25;;;;;-146.50;100.00;59256.41;5094721;27;46760;-79
2023/01/01 09:55:56;;;;;;;;;3.33;2.33;;;;;-146.50;100.00;59256.41;5084885;27;45435;-78
2023/01/01 09:58:32;;;;;;;;;3.33;3.00;;;;;-146.50;100.00;59256.41;5073764;28;45515;-80
2023/01/01 10:01:37;;;;;;;;;4.75;3.50;;;;;-146.50;100.00;59256.41;5074056;27;45441;-80
2023/01/01 10:05:00;;;;;;;;;3.33;3.33;;;;;-146.50;100.00;59256.41;5074746;27;45493;-81
2023/01/01 10:07:50;;;;;;;;;4.00;4.00;;;;;-146.50;100.00;59256.41;5010472;28;45642;-80
2023/01/01 10:10:16;;;;;;;;;4.00;2.50;;;;;-146.50;100.00;59256.41;5010143;28;45559;-80
2023/01/01 10:12:48;;;;;;;;;2.67;2.67;;;;;-146.50;100.00;59256.41;5029396;28;45549;-79
2023/01/01 10:15:28;;;;;;;;;6.67;5.67;;;;;-146.50;100.00;59256.41;5029944;28;45519;-80
2023/01/01 10:17:57;;;;;;;;;3.00;3.00;;;;;-146.50;100.00;59256.41;5029315;28;45585;-79
2023/01/01 10:20:36;;;;;;;;;3.33;3.33;;;;;-146.50;100.00;59256.41;5020491;28;45509;-81
2023/01/01 10:23:18;;;;;;;;;3.00;3.00;;;;;-146.50;100.00;59256.41;5010339;28;45470;-78
2023/01/01 10:25:44;;;;;;;;;3.00;3.00;;;;;-146.50;100.00;59256.41;5010356;28;45455;-81
2023/01/01 10:28:36;;;;;;;;;3.33;2.00;;;;;-146.50;100.00;59256.41;5010264;28;45524;-81
2023/01/01 10:31:34;;;;;;;;;7.67;4.00;;;;;-146.50;100.00;59256.41;5014901;28;45768;-80
2023/01/01 10:34:10;;;;;;;;;4.00;3.00;;;;;-146.50;100.00;59256.41;5030162;28;45617;-85
2023/01/01 10:36:36;;;;;;;;;4.33;4.33;;;;;-146.50;100.00;59256.41;5010348;28;46134;-79
2023/01/01 10:39:01;;;;;;;;;4.67;3.33;;;;;-146.50;100.00;59256.41;5062289;28;45327;-79
2023/01/01 10:41:26;;;;;;;;;4.00;4.00;;;;;-146.50;100.00;59256.41;5071745;28;45701;-80
2023/01/01 10:43:52;;;;;;;;;3.00;3.00;;;;;-146.50;100.00;59256.41;5073118;27;45635;-79
2023/01/01 10:46:23;;;;;;;;;4.50;4.50;;;;;-146.50;100.00;59256.41;5073539;27;46151;-80
2023/01/01 10:49:05;;;;;;;;;6.67;3.00;;;;;-146.50;100.00;59256.41;5073081;27;45417;-79
2023/01/01 10:51:30;;;;;;;;;5.00;3.75;;;;;-146.50;100.00;59256.41;5072821;27;45628;-86
2023/01/01 10:53:55;;;;;;;;;4.00;4.00;;;;;-146.50;100.00;59256.41;5073477;27;45304;-81
2023/01/01 10:56:23;;;;;;;;;5.00;4.25;;;;;-146.50;100.00;59256.41;5073556;27;46314;-79
2023/01/01 10:58:57;;;;;;;;;3.00;3.00;;;;;-146.50;100.00;59256.41;5072989;27;45530;-76
2023/01/01 11:01:31;;;;;;;;;4.25;4.25;;;;;-146.50;100.00;59256.41;5085889;27;45420;-77
2023/01/01 11:04:19;;;;;;;;;3.00;2.00;;;;;-146.50;100.00;59256.41;5090826;27;45626;-78
2023/01/01 11:06:46;;;;;;;;;3.00;1.00;;;;;-146.50;100.00;59256.41;5092180;27;45511;-78
2023/01/01 11:09:30;;;;;;;;;2.00;2.00;;;;;-146.50;100.00;59256.41;5094617;27;45496;-79
2023/01/01 11:12:14;;;;;;;;;2.33;2.00;;;;;-146.50;100.00;59256.41;5070099;27;45517;-79
2023/01/01 11:14:55;;;;;;;;;3.75;2.50;;;;;-146.50;100.00;59256.41;5081106;27;45751;-78
2023/01/01 11:17:25;;;;;;;;;5.00;3.33;;;;;-146.50;100.00;59256.41;5078041;27;46375;-81
2023/01/01 11:19:52;;;;;;;;;3.00;3.00;;;;;-146.50;100.00;59256.41;5072514;27;45480;-78
2023/01/01 11:22:50;;;;;;;;;2.00;2.00;;;;;-146.50;100.00;59256.41;5082597;27;45529;-78
2023/01/01 11:25:22;;;;;;;;;5.00;3.67;;;;;-146.50;100.00;59256.41;5080672;27;45720;-77
2023/01/01 11:27:48;;;;;;;;;4.67;4.00;;;;;-146.50;100.00;59256.41;5089109;27;47205;-78
2023/01/01 11:30:25;;;;;;;;;6.67;4.00;;;;;-146.50;100.00;59256.41;5078770;27;45450;-76